createdAt,value
2022-10-25T05:21:47.898Z,100938.38
2022-10-25T05:24:53.003Z,100942.72
2022-10-25T05:27:58.047Z,100939.13
2022-10-25T05:31:08.057Z,100945.16
2022-10-25T05:34:19.024Z,100937.16
2022-10-25T05:38:14.434Z,100941.59
2022-10-25T05:42:21.345Z,100941.59
2022-10-25T05:50:18.609Z,100944.06
2022-10-25T06:04:12.923Z,100970.06
2022-10-25T06:31:17.029Z,100979.75
2022-10-25T06:34:21.694Z,100981.38
2022-10-25T06:37:26.202Z,100985.81
2022-10-25T06:40:30.859Z,100981.38
2022-10-25T06:43:35.801Z,100991.16
2022-10-25T06:47:15.213Z,100999.91
2022-10-25T06:50:06.095Z,100999.81
2022-10-25T06:53:10.118Z,101003.22
2022-10-25T06:56:15.314Z,101010.94
2022-10-25T06:59:20.579Z,101013.59
2022-10-25T07:02:25.470Z,101021.41
2022-10-25T07:05:30.066Z,101021.31
2022-10-25T07:08:36.610Z,101024.72
2022-10-25T07:11:41.568Z,101029.06
2022-10-25T07:14:46.036Z,101034.16
2022-10-25T07:17:50.849Z,101042.81
2022-10-25T07:21:03.350Z,101039.25
2022-10-25T07:24:11.161Z,101032.09
2022-10-25T07:27:15.948Z,101042.66
2022-10-25T07:30:20.579Z,101045.22
2022-10-25T07:33:25.056Z,101047.75
2022-10-25T07:36:29.827Z,101048.50
2022-10-25T07:39:34.440Z,101044.94
2022-10-25T07:42:38.696Z,101058.88
2022-10-25T07:45:42.786Z,101070.09
2022-10-25T07:48:47.827Z,101069.25
2022-10-25T07:51:52.211Z,101070.06
2022-10-25T07:54:56.632Z,101072.69
2022-10-25T07:58:07.046Z,101075.31
2022-10-25T08:01:14.569Z,101076.19
2022-10-25T08:04:19.249Z,101079.59
2022-10-25T08:07:23.261Z,101076.88
2022-10-25T08:10:28.413Z,101078.38
2022-10-25T08:13:32.834Z,101083.47
2022-10-25T08:16:36.927Z,101081.78
2022-10-25T08:19:41.425Z,101086.97
2022-10-25T08:22:45.790Z,101086.88
2022-10-25T08:25:50.103Z,101091.13
2022-10-25T08:28:55.875Z,101095.38
2022-10-25T08:32:01.287Z,101094.25
2022-10-25T08:35:05.948Z,101098.44
2022-10-25T08:38:09.995Z,101111.38
2022-10-25T08:41:19.830Z,101113.44
2022-10-25T08:44:47.479Z,101106.41
2022-10-25T08:47:53.933Z,101111.38
2022-10-25T08:51:24.713Z,101110.28
2022-10-25T08:55:00.370Z,101104.63
2022-10-25T08:58:25.860Z,101110.56
2022-10-25T09:01:49.738Z,101108.94
2022-10-25T09:04:54.846Z,101123.78
2022-10-25T09:08:27.307Z,101128.13
2022-10-25T09:11:49.115Z,101118.41
2022-10-25T09:15:19.757Z,101128.44
2022-10-25T09:18:50.398Z,101130.75
2022-10-25T09:22:02.348Z,101126.19
2022-10-25T09:25:43.478Z,101121.56
2022-10-25T09:29:09.343Z,101131.75
2022-10-25T09:32:32.599Z,101129.19
2022-10-25T09:35:42.572Z,101126.66
2022-10-25T09:39:33.920Z,101138.53
2022-10-25T09:43:02.103Z,101146.28
2022-10-25T09:46:39.996Z,101157.41
2022-10-25T09:50:06.912Z,101145.16
2022-10-25T09:53:14.864Z,101143.09
2022-10-25T09:56:24.320Z,101151.09
2022-10-25T09:59:29.601Z,101156.38
2022-10-25T10:02:34.514Z,101161.59
2022-10-25T10:06:16.076Z,101166.78
2022-10-25T10:09:21.735Z,101165.91
2022-10-25T10:16:32.569Z,101182.91
2022-10-25T10:19:36.741Z,101181.69
2022-10-25T10:22:52.798Z,101190.34
2022-10-25T10:26:13.769Z,101182.50
2022-10-25T10:29:23.545Z,101177.50
2022-10-25T10:32:34.022Z,101184.31
2022-10-25T10:35:38.671Z,101175.16
2022-10-25T10:38:43.058Z,101183.84
2022-10-25T10:42:15.011Z,101182.16
2022-10-25T10:45:23.342Z,101176.28
2022-10-25T10:48:42.157Z,101177.44
2022-10-25T10:51:48.047Z,101181.25
2022-10-25T10:54:52.688Z,101182.88
2022-10-25T10:58:14.404Z,101184.91
2022-10-25T11:01:34.677Z,101177.28
2022-10-25T11:04:51.386Z,101173.00
2022-10-25T11:08:07.862Z,101184.84
2022-10-25T11:11:20.983Z,101182.19
2022-10-25T11:14:25.567Z,101176.53
2022-10-25T11:17:37.295Z,101169.34
2022-10-25T11:21:39.373Z,101185.22
2022-10-25T11:25:49.003Z,101192.94
2022-10-25T11:29:13.111Z,101166.41
2022-10-25T11:32:27.859Z,101174.72
2022-10-25T11:36:15.472Z,101189.53
2022-10-25T11:40:10.075Z,101176.41
2022-10-25T11:43:53.025Z,101167.75
2022-10-25T11:47:46.002Z,101175.75
2022-10-25T11:51:21.908Z,101143.25
2022-10-25T11:55:02.101Z,101162.53
2022-10-25T11:58:39.839Z,101144.09
2022-10-25T12:01:59.479Z,101146.63
2022-10-25T12:05:16.634Z,101149.19
2022-10-25T12:08:50.321Z,101170.47
2022-10-25T12:12:05.677Z,101176.56
2022-10-25T12:15:23.333Z,101176.47
2022-10-25T12:18:36.585Z,101189.19
2022-10-25T12:21:59.295Z,101186.03
2022-10-25T12:25:18.485Z,101172.41
2022-10-25T12:28:26.045Z,101186.00
2022-10-25T12:31:49.120Z,101184.84
2022-10-25T12:34:59.530Z,101185.94
2022-10-25T12:38:17.649Z,101182.03
2022-10-25T12:41:27.135Z,101173.06
2022-10-25T12:45:19.451Z,101168.72
2022-10-25T12:49:03.219Z,101169.50
2022-10-25T12:52:31.936Z,101177.78
2022-10-25T12:55:50.471Z,101181.38
2022-10-25T12:59:36.007Z,101172.88
2022-10-25T13:03:26.903Z,101164.56
2022-10-25T13:06:47.503Z,101184.53
2022-10-25T13:09:52.552Z,101173.41
2022-10-25T13:13:31.478Z,101177.66
2022-10-25T13:16:36.060Z,101189.00
2022-10-25T13:19:53.969Z,101180.31
2022-10-25T13:22:59.800Z,101188.31
2022-10-25T13:26:09.275Z,101197.22
2022-10-25T13:33:24.233Z,101228.06
2022-10-25T13:36:52.106Z,101234.72
2022-10-25T13:39:58.864Z,101245.47
2022-10-25T13:43:21.646Z,101250.94
2022-10-25T13:46:39.519Z,101260.09
2022-10-25T13:49:47.882Z,101261.81
2022-10-25T13:53:14.089Z,101263.44
2022-10-25T13:56:24.479Z,101278.34
2022-10-25T14:00:00.689Z,101287.63
2022-10-25T14:03:13.020Z,101285.53
2022-10-25T14:06:29.569Z,101264.91
2022-10-25T14:09:36.590Z,101274.56
2022-10-25T14:12:45.742Z,101266.91
2022-10-25T14:16:00.696Z,101261.72
2022-10-25T14:19:20.503Z,101265.47
2022-10-25T14:22:32.788Z,101268.03
2022-10-25T14:25:55.716Z,101260.59
2022-10-25T14:29:20.825Z,101257.75
2022-10-25T14:32:25.163Z,101270.41
2022-10-25T14:35:51.972Z,101269.81
2022-10-25T14:39:16.126Z,101265.50
2022-10-25T14:42:20.517Z,101259.44
2022-10-25T14:45:26.893Z,101288.06
2022-10-25T14:48:33.033Z,101290.13
2022-10-25T14:51:40.824Z,101295.59
2022-10-25T14:54:52.475Z,101293.91
2022-10-25T14:58:00.502Z,101296.66
2022-10-25T15:01:05.088Z,101307.50
2022-10-25T15:04:10.175Z,101300.47
2022-10-25T15:07:23.805Z,101297.91
2022-10-25T15:10:43.596Z,101307.06
2022-10-25T15:13:50.665Z,101314.84
2022-10-25T15:17:03.625Z,101328.59
2022-10-25T15:20:14.557Z,101325.53
2022-10-25T15:23:26.200Z,101340.72
2022-10-25T15:26:34.692Z,101327.34
2022-10-25T15:29:43.718Z,101336.28
2022-10-25T15:32:49.036Z,101316.19
2022-10-25T15:35:58.375Z,101331.44
2022-10-25T15:39:29.003Z,101335.47
2022-10-25T15:42:33.369Z,101343.72
2022-10-25T15:45:38.615Z,101350.97
2022-10-25T15:48:43.340Z,101353.69
2022-10-25T15:51:48.689Z,101345.84
2022-10-25T15:55:27.542Z,101354.69
2022-10-25T15:58:32.144Z,101346.91
2022-10-25T16:01:40.797Z,101344.34
2022-10-25T16:04:46.084Z,101353.19
2022-10-25T16:07:51.617Z,101352.34
2022-10-25T16:10:58.342Z,101363.66
2022-10-25T16:14:04.755Z,101366.22
2022-10-25T16:17:09.913Z,101374.13
2022-10-25T16:20:24.518Z,101386.50
2022-10-25T16:23:29.689Z,101385.88
2022-10-25T16:26:41.726Z,101383.69
2022-10-25T16:29:47.118Z,101395.31
2022-10-25T16:32:52.488Z,101394.88
2022-10-25T16:35:57.082Z,101393.34
2022-10-25T16:39:01.396Z,101401.38
2022-10-25T16:42:33.561Z,101401.53
2022-10-25T16:45:38.062Z,101411.38
2022-10-25T16:48:43.085Z,101410.53
2022-10-25T16:51:48.808Z,101403.53
2022-10-25T16:54:53.456Z,101409.69
2022-10-25T16:57:59.370Z,101414.09
2022-10-25T17:01:16.090Z,101422.19
2022-10-25T17:04:23.345Z,101421.75
2022-10-25T17:07:27.657Z,101430.84
2022-10-25T17:10:31.972Z,101431.97
2022-10-25T17:13:36.490Z,101440.94
2022-10-25T17:16:43.890Z,101435.84
2022-10-25T17:19:48.274Z,101432.50
2022-10-25T17:22:54.305Z,101433.50
2022-10-25T17:25:59.893Z,101442.53
2022-10-25T17:29:04.713Z,101436.63
2022-10-25T17:32:09.531Z,101441.25
2022-10-25T17:35:14.199Z,101439.66
2022-10-25T17:38:18.895Z,101441.59
2022-10-25T17:41:23.302Z,101440.03
2022-10-25T17:44:27.539Z,101450.72
2022-10-25T17:47:31.899Z,101447.31
2022-10-25T17:50:40.840Z,101449.19
2022-10-25T17:53:54.155Z,101451.75
2022-10-25T17:57:01.109Z,101458.84
2022-10-25T18:00:06.741Z,101456.28
2022-10-25T18:03:11.623Z,101463.13
2022-10-25T18:06:19.705Z,101470.88
2022-10-25T18:09:24.420Z,101479.41
2022-10-25T18:12:29.198Z,101483.63
2022-10-25T18:15:35.780Z,101473.00
2022-10-25T18:18:40.323Z,101468.56
2022-10-25T18:21:44.743Z,101469.50
2022-10-25T18:24:48.592Z,101474.22
2022-10-25T18:27:53.036Z,101473.53
2022-10-25T18:31:10.360Z,101471.94
2022-10-25T18:34:14.664Z,101469.38
2022-10-25T18:37:19.004Z,101470.41
2022-10-25T18:40:23.563Z,101475.69
2022-10-25T18:43:28.380Z,101479.25
2022-10-25T18:46:32.957Z,101480.00
2022-10-25T18:49:37.532Z,101486.84
2022-10-25T18:52:42.490Z,101491.22
2022-10-25T18:55:49.062Z,101485.13
2022-10-25T18:58:56.804Z,101475.53
2022-10-25T19:02:01.397Z,101487.00
2022-10-25T19:08:12.889Z,101476.59
2022-10-25T19:11:17.633Z,101482.09
2022-10-25T19:14:22.171Z,101484.94
2022-10-25T19:17:26.796Z,101479.19
2022-10-25T19:20:31.247Z,101482.16
2022-10-25T19:23:36.627Z,101478.84
2022-10-25T19:26:41.814Z,101481.66
2022-10-25T19:29:46.564Z,101479.31
2022-10-25T19:32:51.416Z,101482.00
2022-10-25T19:36:10.076Z,101481.31
2022-10-25T19:39:14.340Z,101480.56
2022-10-25T19:42:18.736Z,101479.88
2022-10-25T19:45:23.671Z,101487.13
2022-10-25T19:48:31.242Z,101490.81
2022-10-25T19:51:35.593Z,101484.00
2022-10-25T19:54:39.783Z,101483.22
2022-10-25T19:57:43.917Z,101480.72
2022-10-25T20:00:49.743Z,101478.03
2022-10-25T20:03:55.486Z,101495.75
2022-10-25T20:07:00.598Z,101492.38
2022-10-25T20:10:06.458Z,101496.03
2022-10-25T20:13:11.006Z,101498.78
2022-10-25T20:16:15.537Z,101503.22
2022-10-25T20:19:20.727Z,101500.66
2022-10-25T20:22:25.404Z,101495.50
2022-10-25T20:25:29.912Z,101495.63
2022-10-25T20:28:34.932Z,101505.28
2022-10-25T20:31:39.392Z,101502.75
2022-10-25T20:34:43.659Z,101501.09
2022-10-25T20:37:48.767Z,101515.22
2022-10-25T20:40:54.418Z,101503.00
2022-10-25T20:44:02.900Z,101511.81
2022-10-25T20:47:07.722Z,101509.31
2022-10-25T20:50:12.584Z,101513.78
2022-10-25T20:53:17.531Z,101510.38
2022-10-25T20:56:22.577Z,101510.38
2022-10-25T20:59:27.185Z,101510.59
2022-10-25T21:02:31.591Z,101519.19
2022-10-25T21:05:36.980Z,101522.88
2022-10-25T21:08:41.493Z,101532.41
2022-10-25T21:11:45.889Z,101527.88
2022-10-25T21:14:51.033Z,101532.09
2022-10-25T21:17:55.174Z,101536.56
2022-10-25T21:21:01.498Z,101538.41
2022-10-25T21:24:06.588Z,101531.31
2022-10-25T21:27:10.942Z,101533.94
2022-10-25T21:30:15.310Z,101527.75
2022-10-25T21:33:19.313Z,101534.00
2022-10-25T21:36:25.357Z,101539.97
2022-10-25T21:39:29.975Z,101535.38
2022-10-25T21:42:34.777Z,101541.41
2022-10-25T21:45:42.448Z,101539.59
2022-10-25T21:48:50.458Z,101544.84
2022-10-25T21:51:54.761Z,101533.53
2022-10-25T21:54:59.355Z,101534.47
2022-10-25T21:58:03.632Z,101537.22
2022-10-25T22:01:21.251Z,101538.13
2022-10-25T22:04:27.776Z,101539.03
2022-10-25T22:07:32.532Z,101540.84
2022-10-25T22:10:37.031Z,101536.56
2022-10-25T22:13:41.717Z,101537.63
2022-10-25T22:16:46.269Z,101538.66
2022-10-25T22:19:50.715Z,101538.81
2022-10-25T22:22:55.156Z,101534.53
2022-10-25T22:26:02.853Z,101532.88
2022-10-25T22:29:10.171Z,101536.44
2022-10-25T22:32:14.379Z,101541.63
2022-10-25T22:35:18.915Z,101544.22
2022-10-25T22:38:23.269Z,101547.63
2022-10-25T22:41:29.472Z,101552.88
2022-10-25T22:44:34.212Z,101551.81
2022-10-25T22:47:38.562Z,101544.72
2022-10-25T22:50:54.428Z,101556.81
2022-10-25T22:53:58.951Z,101552.38
2022-10-25T22:57:03.387Z,101555.84
2022-10-25T23:00:08.900Z,101555.91
2022-10-25T23:03:13.498Z,101556.81
2022-10-25T23:06:21.256Z,101555.06
2022-10-25T23:12:29.946Z,101556.81
2022-10-25T23:15:34.189Z,101553.34
2022-10-25T23:18:39.882Z,101553.34
2022-10-25T23:21:44.460Z,101555.19
2022-10-25T23:24:48.747Z,101553.53
2022-10-25T23:27:53.132Z,101555.31
2022-10-25T23:31:08.398Z,101550.13
2022-10-25T23:34:13.299Z,101547.75
2022-10-25T23:37:18.033Z,101550.38
2022-10-25T23:40:22.661Z,101553.97
2022-10-25T23:43:27.477Z,101542.75
2022-10-25T23:46:32.238Z,101546.31
2022-10-25T23:49:36.598Z,101544.66
2022-10-25T23:52:41.259Z,101544.59
2022-10-25T23:55:45.366Z,101540.03
2022-10-25T23:58:53.686Z,101551.44
